createdAt,value
2023-05-09T00:03:44.613Z,16.85
2023-05-09T00:07:48.835Z,14.82
2023-05-09T00:11:50.822Z,14.85
2023-05-09T00:15:57.290Z,14.40
2023-05-09T00:20:01.431Z,14.85
2023-05-09T00:24:03.521Z,14.80
2023-05-09T00:28:05.611Z,14.57
2023-05-09T00:32:07.788Z,13.63
2023-05-09T00:36:09.762Z,12.93
2023-05-09T00:40:12.056Z,12.40
2023-05-09T00:44:14.466Z,12.55
2023-05-09T00:48:17.061Z,12.70
2023-05-09T00:52:23.297Z,12.20
2023-05-09T00:56:25.844Z,12.68
2023-05-09T01:00:28.399Z,12.32
2023-05-09T01:04:30.588Z,13.95
2023-05-09T01:08:55.133Z,11.73
2023-05-09T01:13:15.883Z,12.82
2023-05-09T01:17:29.689Z,13.32
2023-05-09T01:21:33.308Z,13.05
2023-05-09T01:25:57.110Z,12.55
2023-05-09T01:30:02.028Z,13.05
2023-05-09T01:34:06.612Z,12.47
2023-05-09T01:38:13.437Z,13.67
2023-05-09T01:42:18.697Z,14.07
2023-05-09T01:46:22.733Z,14.10
2023-05-09T01:50:25.896Z,14.95
2023-05-09T01:54:28.993Z,13.82
2023-05-09T01:58:33.542Z,13.82
2023-05-09T02:02:36.383Z,16.27
2023-05-09T02:06:40.079Z,16.17
2023-05-09T02:10:42.656Z,14.52
2023-05-09T02:14:44.446Z,14.77
2023-05-09T02:18:47.095Z,14.32
2023-05-09T02:22:49.135Z,14.68
2023-05-09T02:26:51.297Z,15.02
2023-05-09T02:30:56.214Z,15.10
2023-05-09T02:34:59.531Z,13.77
2023-05-09T02:39:02.068Z,15.80
2023-05-09T02:43:04.778Z,13.45
2023-05-09T02:47:07.599Z,13.33
2023-05-09T02:51:09.715Z,12.25
2023-05-09T02:55:12.454Z,13.23
2023-05-09T02:59:18.348Z,12.90
2023-05-09T03:03:22.209Z,12.87
2023-05-09T03:07:25.655Z,13.85
2023-05-09T03:11:27.881Z,13.30
2023-05-09T03:15:29.792Z,12.85
2023-05-09T03:19:34.143Z,15.77
2023-05-09T03:23:36.681Z,15.80
2023-05-09T03:27:38.890Z,16.47
2023-05-09T03:31:44.432Z,14.53
2023-05-09T03:35:46.638Z,14.40
2023-05-09T03:39:48.788Z,15.40
2023-05-09T03:43:51.032Z,17.50
2023-05-09T03:47:53.138Z,18.88
2023-05-09T03:51:55.382Z,19.50
2023-05-09T03:55:57.447Z,19.33
2023-05-09T04:00:00.947Z,19.20
2023-05-09T04:04:03.282Z,16.77
2023-05-09T04:08:08.454Z,17.85
2023-05-09T04:12:10.458Z,16.83
2023-05-09T04:16:12.452Z,17.70
2023-05-09T04:20:15.180Z,18.93
2023-05-09T04:24:18.424Z,22.67
2023-05-09T04:28:22.741Z,23.80
2023-05-09T04:32:24.925Z,23.43
2023-05-09T04:36:27.777Z,22.83
2023-05-09T04:40:33.164Z,22.48
2023-05-09T04:44:36.232Z,20.83
2023-05-09T04:48:38.901Z,21.20
2023-05-09T04:52:41.022Z,20.42
2023-05-09T04:56:43.042Z,22.05
2023-05-09T05:00:45.508Z,23.88
2023-05-09T05:04:48.279Z,22.65
2023-05-09T05:08:50.882Z,23.35
2023-05-09T05:12:53.009Z,23.92
2023-05-09T05:16:54.976Z,23.30
2023-05-09T05:20:58.484Z,24.13
2023-05-09T05:25:00.991Z,24.05
2023-05-09T05:29:03.181Z,23.00
2023-05-09T05:33:05.400Z,23.70
2023-05-09T05:37:07.876Z,22.73
2023-05-09T05:41:11.388Z,22.58
2023-05-09T05:45:15.775Z,22.00
2023-05-09T05:49:22.515Z,21.45
2023-05-09T05:53:24.886Z,21.20
2023-05-09T05:57:27.210Z,20.50
2023-05-09T06:01:29.839Z,20.30
2023-05-09T06:05:33.796Z,21.20
2023-05-09T06:09:35.827Z,20.40
2023-05-09T06:13:37.835Z,20.43
2023-05-09T06:17:41.754Z,19.38
2023-05-09T06:21:44.107Z,19.17
2023-05-09T06:25:46.204Z,18.83
2023-05-09T06:29:48.302Z,19.48
2023-05-09T06:33:50.438Z,18.48
2023-05-09T06:37:52.485Z,19.33
2023-05-09T06:41:54.403Z,19.27
2023-05-09T06:46:05.858Z,17.83
2023-05-09T06:50:08.879Z,18.40
2023-05-09T06:54:10.870Z,19.45
2023-05-09T06:58:12.743Z,19.00
2023-05-09T07:02:14.608Z,18.00
2023-05-09T07:06:17.775Z,18.10
2023-05-09T07:10:19.751Z,19.25
2023-05-09T07:14:21.742Z,17.52
2023-05-09T07:18:23.958Z,18.00
2023-05-09T07:22:26.023Z,16.23
2023-05-09T07:26:28.120Z,20.38
2023-05-09T07:30:30.140Z,18.70
2023-05-09T07:34:32.035Z,19.23
2023-05-09T07:38:34.109Z,18.73
2023-05-09T07:42:36.295Z,20.30
2023-05-09T07:46:40.959Z,17.98
2023-05-09T07:50:43.055Z,19.55
2023-05-09T07:54:45.040Z,19.20
2023-05-09T07:58:46.947Z,21.05
2023-05-09T08:02:49.204Z,20.77
2023-05-09T08:06:51.481Z,20.67
2023-05-09T08:10:53.448Z,19.08
2023-05-09T08:14:55.243Z,20.80
2023-05-09T08:18:57.105Z,20.90
2023-05-09T08:22:59.072Z,22.20
2023-05-09T08:27:01.534Z,21.52
2023-05-09T08:31:03.728Z,21.20
2023-05-09T08:35:06.853Z,19.77
2023-05-09T08:39:09.842Z,20.00
2023-05-09T08:43:13.065Z,19.75
2023-05-09T08:47:15.602Z,19.73
2023-05-09T08:51:17.910Z,19.02
2023-05-09T08:55:20.400Z,21.20
2023-05-09T08:59:22.495Z,21.77
2023-05-09T09:03:27.704Z,21.73
2023-05-09T09:07:33.752Z,20.27
2023-05-09T09:11:40.457Z,21.90
2023-05-09T09:15:45.367Z,23.40
2023-05-09T09:19:50.773Z,23.33
2023-05-09T09:23:55.106Z,22.73
2023-05-09T09:27:57.194Z,22.15
2023-05-09T09:32:02.933Z,22.55
2023-05-09T09:36:06.082Z,21.25
2023-05-09T09:40:10.119Z,20.35
2023-05-09T09:44:22.662Z,19.42
2023-05-09T09:48:26.406Z,19.58
2023-05-09T09:52:28.411Z,19.85
2023-05-09T09:56:47.239Z,16.25
2023-05-09T10:01:11.243Z,18.30
2023-05-09T10:05:25.469Z,20.00
2023-05-09T10:09:28.391Z,16.10
2023-05-09T10:13:30.654Z,16.83
2023-05-09T10:17:33.268Z,17.58
2023-05-09T10:21:37.921Z,16.70
2023-05-09T10:25:47.442Z,15.38
2023-05-09T10:30:07.087Z,16.30
2023-05-09T10:34:12.238Z,15.82
2023-05-09T10:38:14.438Z,14.15
2023-05-09T10:42:16.450Z,14.60
2023-05-09T10:46:18.939Z,16.40
2023-05-09T10:50:21.578Z,14.38
2023-05-09T10:54:32.311Z,13.90
2023-05-09T10:58:37.441Z,15.00
2023-05-09T11:02:39.391Z,14.65
2023-05-09T11:06:45.238Z,14.00
2023-05-09T11:10:47.701Z,14.82
2023-05-09T11:14:56.087Z,14.90
2023-05-09T11:18:58.000Z,15.95
2023-05-09T11:23:01.188Z,14.27
2023-05-09T11:27:14.451Z,15.52
2023-05-09T11:31:18.356Z,15.30
2023-05-09T11:35:22.041Z,15.23
2023-05-09T11:39:27.198Z,14.40
2023-05-09T11:43:29.657Z,13.30
2023-05-09T11:47:31.710Z,12.32
2023-05-09T11:51:37.469Z,13.00
2023-05-09T11:55:41.530Z,14.07
2023-05-09T11:59:45.428Z,12.95
2023-05-09T12:03:48.153Z,13.57
2023-05-09T12:07:50.993Z,11.82
2023-05-09T12:11:53.058Z,13.00
2023-05-09T12:16:01.491Z,11.73
2023-05-09T12:20:07.017Z,12.70
2023-05-09T12:24:09.005Z,13.13
2023-05-09T12:28:11.252Z,10.00
2023-05-09T12:32:15.481Z,11.38
2023-05-09T12:36:17.645Z,11.52
2023-05-09T12:40:19.477Z,11.25
2023-05-09T12:44:29.724Z,10.05
2023-05-09T12:48:38.082Z,9.52
2023-05-09T12:52:54.560Z,8.77
2023-05-09T12:57:05.602Z,7.47
2023-05-09T13:01:07.613Z,8.48
2023-05-09T13:05:19.922Z,9.73
2023-05-09T13:09:23.164Z,8.77
2023-05-09T13:13:28.785Z,8.00
2023-05-09T13:17:30.913Z,8.10
2023-05-09T13:21:34.048Z,9.57
2023-05-09T13:25:36.076Z,8.70
2023-05-09T13:29:38.439Z,9.77
2023-05-09T13:33:41.036Z,8.65
2023-05-09T13:37:43.694Z,8.90
2023-05-09T13:41:45.867Z,9.25
2023-05-09T13:45:47.915Z,7.95
2023-05-09T13:49:49.906Z,7.47
2023-05-09T13:53:52.116Z,7.63
2023-05-09T13:57:53.997Z,6.72
2023-05-09T14:01:58.788Z,5.32
2023-05-09T14:06:00.799Z,5.97
2023-05-09T14:14:09.450Z,5.80
2023-05-09T14:18:15.875Z,5.93
2023-05-09T14:22:19.165Z,5.85
2023-05-09T14:26:22.241Z,6.97
2023-05-09T14:30:25.651Z,6.90
2023-05-09T14:34:27.841Z,6.32
2023-05-09T14:38:29.845Z,5.32
2023-05-09T14:42:32.806Z,7.57
2023-05-09T14:46:35.780Z,6.50
2023-05-09T14:50:37.871Z,7.90
2023-05-09T14:54:40.044Z,6.85
2023-05-09T14:58:42.272Z,7.47
2023-05-09T15:02:44.238Z,7.30
2023-05-09T15:06:46.330Z,8.02
2023-05-09T15:10:48.287Z,6.95
2023-05-09T15:14:53.737Z,5.97
2023-05-09T15:18:56.401Z,5.45
2023-05-09T15:22:58.410Z,4.90
2023-05-09T15:27:00.624Z,6.05
2023-05-09T15:31:03.425Z,6.43
2023-05-09T15:35:06.865Z,7.82
2023-05-09T15:39:08.944Z,6.68
2023-05-09T15:43:10.881Z,7.90
2023-05-09T15:47:13.215Z,8.40
2023-05-09T15:51:15.431Z,7.35
2023-05-09T15:55:17.968Z,8.73
2023-05-09T15:59:19.989Z,9.10
2023-05-09T16:03:23.204Z,7.93
2023-05-09T16:07:26.922Z,8.10
2023-05-09T16:11:28.946Z,7.35
2023-05-09T16:15:30.940Z,7.07
2023-05-09T16:19:35.739Z,6.65
2023-05-09T16:23:39.574Z,8.73
2023-05-09T16:27:41.621Z,7.97
2023-05-09T16:31:44.936Z,7.57
2023-05-09T16:35:47.560Z,7.50
2023-05-09T16:39:50.001Z,6.80
2023-05-09T16:43:51.984Z,7.07
2023-05-09T16:47:55.561Z,6.82
2023-05-09T16:51:58.141Z,6.95
2023-05-09T16:56:00.555Z,6.35
2023-05-09T17:00:03.125Z,6.10
2023-05-09T17:04:06.863Z,5.53
2023-05-09T17:08:08.963Z,5.15
2023-05-09T17:12:17.456Z,5.43
2023-05-09T17:16:19.781Z,4.35
2023-05-09T17:20:21.898Z,4.28
2023-05-09T17:24:23.808Z,3.83
2023-05-09T17:28:25.867Z,4.18
2023-05-09T17:32:28.204Z,3.80
2023-05-09T17:36:30.292Z,3.75
2023-05-09T17:40:32.291Z,3.65
2023-05-09T17:44:34.480Z,3.17
2023-05-09T17:48:36.495Z,3.42
2023-05-09T17:52:38.723Z,3.00
2023-05-09T17:56:40.842Z,3.58
2023-05-09T18:00:43.082Z,3.38
2023-05-09T18:04:46.338Z,3.42
2023-05-09T18:08:48.398Z,3.65
2023-05-09T18:12:50.922Z,3.60
2023-05-09T18:16:52.955Z,3.85
2023-05-09T18:20:56.851Z,3.70
2023-05-09T18:24:59.285Z,4.07
2023-05-09T18:29:01.618Z,3.80
2023-05-09T18:33:03.828Z,4.07
2023-05-09T18:37:07.063Z,3.88
2023-05-09T18:41:10.935Z,3.75
2023-05-09T18:45:13.421Z,4.03
2023-05-09T18:49:15.592Z,4.00
2023-05-09T18:53:18.162Z,3.97
2023-05-09T18:57:20.952Z,3.13
2023-05-09T19:01:24.538Z,2.80
2023-05-09T19:05:27.432Z,2.72
2023-05-09T19:09:30.685Z,3.17
2023-05-09T19:13:36.828Z,2.85
2023-05-09T19:17:39.052Z,3.30
2023-05-09T19:21:40.972Z,2.45
2023-05-09T19:25:42.984Z,2.95
2023-05-09T19:29:45.169Z,3.20
2023-05-09T19:33:47.836Z,3.55
2023-05-09T19:37:50.130Z,3.95
2023-05-09T19:41:52.556Z,3.85
2023-05-09T19:45:54.655Z,3.97
2023-05-09T19:49:56.591Z,4.68
2023-05-09T19:53:58.943Z,5.00
2023-05-09T19:58:00.808Z,4.75
2023-05-09T20:02:03.256Z,4.35
2023-05-09T20:06:05.804Z,4.68
2023-05-09T20:10:08.390Z,4.22
2023-05-09T20:14:10.393Z,4.03
2023-05-09T20:18:12.415Z,4.80
2023-05-09T20:22:14.212Z,4.40
2023-05-09T20:26:16.259Z,4.55
2023-05-09T20:30:18.284Z,4.70
2023-05-09T20:34:22.110Z,5.60
2023-05-09T20:38:24.245Z,5.13
2023-05-09T20:42:26.211Z,4.78
2023-05-09T20:46:28.138Z,4.43
2023-05-09T20:50:30.185Z,4.63
2023-05-09T20:54:32.050Z,4.47
2023-05-09T20:58:34.598Z,4.18
2023-05-09T21:02:36.661Z,4.45
2023-05-09T21:06:38.832Z,4.70
2023-05-09T21:10:41.182Z,5.03
2023-05-09T21:14:44.636Z,6.35
2023-05-09T21:18:46.633Z,5.35
2023-05-09T21:22:48.538Z,5.28
2023-05-09T21:26:51.271Z,4.90
2023-05-09T21:30:54.016Z,4.18
2023-05-09T21:34:56.240Z,4.50
2023-05-09T21:38:58.280Z,4.55
2023-05-09T21:43:00.210Z,4.95
2023-05-09T21:47:02.415Z,5.60
2023-05-09T21:51:04.707Z,6.10
2023-05-09T21:55:06.760Z,5.93
2023-05-09T21:59:09.318Z,8.05
2023-05-09T22:03:11.459Z,8.10
2023-05-09T22:07:13.465Z,8.25
2023-05-09T22:11:16.036Z,8.20
2023-05-09T22:15:18.304Z,8.10
2023-05-09T22:19:20.350Z,7.50
2023-05-09T22:23:22.388Z,7.18
2023-05-09T22:27:24.452Z,7.57
2023-05-09T22:31:26.787Z,7.85
2023-05-09T22:35:28.853Z,7.28
2023-05-09T22:39:31.046Z,7.57
2023-05-09T22:43:38.682Z,7.53
2023-05-09T22:47:41.421Z,7.05
2023-05-09T22:51:43.477Z,6.93
2023-05-09T22:55:45.512Z,7.00
2023-05-09T22:59:47.447Z,7.13
2023-05-09T23:03:49.241Z,5.60
2023-05-09T23:07:51.976Z,6.45
2023-05-09T23:11:54.940Z,6.43
2023-05-09T23:15:56.763Z,6.28
2023-05-09T23:20:00.651Z,6.43
2023-05-09T23:24:03.563Z,6.95
2023-05-09T23:28:05.572Z,6.43
2023-05-09T23:32:07.622Z,6.15
2023-05-09T23:36:09.832Z,6.25
2023-05-09T23:40:12.576Z,6.53
2023-05-09T23:44:14.816Z,6.55
2023-05-09T23:48:16.783Z,7.10
2023-05-09T23:52:18.827Z,6.93
2023-05-09T23:56:21.497Z,6.95
